<?xml version="1.0" encoding="UTF-8" standalone="no" ?>
<gpx xmlns="http://www.topografix.com/GPX/1/1" xmlns:xsi="http://www.w3.org/2001/XMLSchema-instance" xsi:schemaLocation="http://www.topografix.com/GPX/1/1 http://www.topografix.com/GPX/1/1/gpx.xsd" version="1.1" creator="VisuGPX - https://www.visugpx.com">
  <metadata>
    <name>04 - Labouheyre - Onesse Laharie</name>
    <desc><![CDATA[Voie de Tours - Labouheyre - Onesse Laharie]]></desc>
  </metadata>
  <trk>
    <name><![CDATA[04 - Labouheyre - Onesse Laharie]]></name>
    <trkseg>
      <trkpt lat="44.21234" lon="-0.92124">
        <ele>71</ele>
        <time>2017-01-13T11:49:01Z</time>
      </trkpt>
      <trkpt lat="44.21203" lon="-0.92171">
        <ele>70</ele>
        <time>2017-01-13T11:49:41Z</time>
      </trkpt>
      <trkpt lat="44.212" lon="-0.92229">
        <ele>70</ele>
        <time>2017-01-13T11:50:21Z</time>
      </trkpt>
      <trkpt lat="44.21163" lon="-0.92238">
        <ele>69</ele>
        <time>2017-01-13T11:51:01Z</time>
      </trkpt>
      <trkpt lat="44.20885" lon="-0.92641">
        <ele>69</ele>
        <time>2017-01-13T11:51:41Z</time>
      </trkpt>
      <trkpt lat="44.20834" lon="-0.92648">
        <ele>69</ele>
        <time>2017-01-13T11:52:21Z</time>
      </trkpt>
      <trkpt lat="44.20719" lon="-0.92542">
        <ele>71</ele>
        <time>2017-01-13T11:53:01Z</time>
      </trkpt>
      <trkpt lat="44.20468" lon="-0.9257">
        <ele>71</ele>
        <time>2017-01-13T11:53:41Z</time>
      </trkpt>
      <trkpt lat="44.20133" lon="-0.92371">
        <ele>75</ele>
        <time>2017-01-13T11:54:21Z</time>
      </trkpt>
      <trkpt lat="44.20071" lon="-0.92377">
        <ele>74</ele>
        <time>2017-01-13T11:55:01Z</time>
      </trkpt>
      <trkpt lat="44.20014" lon="-0.92429">
        <ele>72</ele>
        <time>2017-01-13T11:55:41Z</time>
      </trkpt>
      <trkpt lat="44.19979" lon="-0.92521">
        <ele>73</ele>
        <time>2017-01-13T11:56:21Z</time>
      </trkpt>
      <trkpt lat="44.19822" lon="-0.93212">
        <ele>74</ele>
        <time>2017-01-13T11:57:01Z</time>
      </trkpt>
      <trkpt lat="44.1979" lon="-0.93253">
        <ele>74</ele>
        <time>2017-01-13T11:57:41Z</time>
      </trkpt>
      <trkpt lat="44.18462" lon="-0.94051">
        <ele>77</ele>
        <time>2017-01-13T11:58:21Z</time>
      </trkpt>
      <trkpt lat="44.18385" lon="-0.94064">
        <ele>78</ele>
        <time>2017-01-13T11:59:01Z</time>
      </trkpt>
      <trkpt lat="44.18284" lon="-0.94004">
        <ele>80</ele>
        <time>2017-01-13T11:59:41Z</time>
      </trkpt>
      <trkpt lat="44.18233" lon="-0.94015">
        <ele>80</ele>
        <time>2017-01-13T12:00:21Z</time>
      </trkpt>
      <trkpt lat="44.18183" lon="-0.94042">
        <ele>81</ele>
        <time>2017-01-13T12:01:01Z</time>
      </trkpt>
      <trkpt lat="44.18293" lon="-0.94403">
        <ele>79</ele>
        <time>2017-01-13T12:01:41Z</time>
      </trkpt>
      <trkpt lat="44.18248" lon="-0.94416">
        <ele>79</ele>
        <time>2017-01-13T12:02:21Z</time>
      </trkpt>
      <trkpt lat="44.18231" lon="-0.94386">
        <ele>79</ele>
        <time>2017-01-13T12:03:01Z</time>
      </trkpt>
      <trkpt lat="44.18216" lon="-0.94334">
        <ele>79</ele>
        <time>2017-01-13T12:03:41Z</time>
      </trkpt>
      <trkpt lat="44.18179" lon="-0.94308">
        <ele>79</ele>
        <time>2017-01-13T12:04:21Z</time>
      </trkpt>
      <trkpt lat="44.15327" lon="-0.95997">
        <ele>76</ele>
        <time>2017-01-13T12:05:01Z</time>
      </trkpt>
      <trkpt lat="44.15187" lon="-0.96098">
        <ele>76</ele>
        <time>2017-01-13T12:05:41Z</time>
      </trkpt>
      <trkpt lat="44.1507" lon="-0.96235">
        <ele>77</ele>
        <time>2017-01-13T12:06:21Z</time>
      </trkpt>
      <trkpt lat="44.14851" lon="-0.96579">
        <ele>77</ele>
        <time>2017-01-13T12:07:01Z</time>
      </trkpt>
      <trkpt lat="44.14822" lon="-0.96868">
        <ele>76</ele>
        <time>2017-01-13T12:07:41Z</time>
      </trkpt>
      <trkpt lat="44.14799" lon="-0.96931">
        <ele>78</ele>
        <time>2017-01-13T12:08:21Z</time>
      </trkpt>
      <trkpt lat="44.14726" lon="-0.97004">
        <ele>77</ele>
        <time>2017-01-13T12:09:01Z</time>
      </trkpt>
      <trkpt lat="44.14669" lon="-0.97032">
        <ele>77</ele>
        <time>2017-01-13T12:09:41Z</time>
      </trkpt>
      <trkpt lat="44.14559" lon="-0.96926">
        <ele>78</ele>
        <time>2017-01-13T12:10:21Z</time>
      </trkpt>
      <trkpt lat="44.14468" lon="-0.97004">
        <ele>78</ele>
        <time>2017-01-13T12:11:01Z</time>
      </trkpt>
      <trkpt lat="44.14172" lon="-0.97197">
        <ele>80</ele>
        <time>2017-01-13T12:11:41Z</time>
      </trkpt>
      <trkpt lat="44.14021" lon="-0.97345">
        <ele>81</ele>
        <time>2017-01-13T12:12:21Z</time>
      </trkpt>
      <trkpt lat="44.13692" lon="-0.97722">
        <ele>79</ele>
        <time>2017-01-13T12:13:01Z</time>
      </trkpt>
      <trkpt lat="44.13545" lon="-0.97885">
        <ele>77</ele>
        <time>2017-01-13T12:13:41Z</time>
      </trkpt>
      <trkpt lat="44.13428" lon="-0.97969">
        <ele>77</ele>
        <time>2017-01-13T12:14:21Z</time>
      </trkpt>
      <trkpt lat="44.13291" lon="-0.98051">
        <ele>79</ele>
        <time>2017-01-13T12:15:01Z</time>
      </trkpt>
      <trkpt lat="44.1318" lon="-0.98098">
        <ele>79</ele>
        <time>2017-01-13T12:15:41Z</time>
      </trkpt>
      <trkpt lat="44.12384" lon="-0.99261">
        <ele>86</ele>
        <time>2017-01-13T12:16:21Z</time>
      </trkpt>
      <trkpt lat="44.11726" lon="-1.00094">
        <ele>82</ele>
        <time>2017-01-13T12:17:01Z</time>
      </trkpt>
      <trkpt lat="44.10947" lon="-1.01083">
        <ele>77</ele>
        <time>2017-01-13T12:17:41Z</time>
      </trkpt>
      <trkpt lat="44.10162" lon="-1.0207">
        <ele>77</ele>
        <time>2017-01-13T12:18:21Z</time>
      </trkpt>
      <trkpt lat="44.09603" lon="-1.02765">
        <ele>74</ele>
        <time>2017-01-13T12:19:01Z</time>
      </trkpt>
      <trkpt lat="44.09547" lon="-1.02841">
        <ele>76</ele>
        <time>2017-01-13T12:19:41Z</time>
      </trkpt>
      <trkpt lat="44.09512" lon="-1.02874">
        <ele>76</ele>
        <time>2017-01-13T12:20:21Z</time>
      </trkpt>
      <trkpt lat="44.09473" lon="-1.02843">
        <ele>77</ele>
        <time>2017-01-13T12:21:01Z</time>
      </trkpt>
      <trkpt lat="44.09408" lon="-1.02751">
        <ele>81</ele>
        <time>2017-01-13T12:21:41Z</time>
      </trkpt>
      <trkpt lat="44.09361" lon="-1.02698">
        <ele>69</ele>
      </trkpt>
      <trkpt lat="44.09344" lon="-1.02692">
        <ele>69</ele>
      </trkpt>
      <trkpt lat="44.09288" lon="-1.02661">
        <ele>69</ele>
      </trkpt>
      <trkpt lat="44.09271" lon="-1.0265">
        <ele>69</ele>
      </trkpt>
      <trkpt lat="44.09215" lon="-1.02621">
        <ele>69</ele>
      </trkpt>
      <trkpt lat="44.0911" lon="-1.02559">
        <ele>81</ele>
        <time>2017-01-13T12:22:21Z</time>
      </trkpt>
      <trkpt lat="44.08976" lon="-1.0249">
        <ele>79</ele>
        <time>2017-01-13T12:23:01Z</time>
      </trkpt>
      <trkpt lat="44.08886" lon="-1.02471">
        <ele>73</ele>
        <time>2017-01-13T12:23:41Z</time>
      </trkpt>
      <trkpt lat="44.08799" lon="-1.02471">
        <ele>71</ele>
        <time>2017-01-13T12:24:21Z</time>
      </trkpt>
      <trkpt lat="44.08768" lon="-1.02428">
        <ele>70</ele>
        <time>2017-01-13T12:25:01Z</time>
      </trkpt>
      <trkpt lat="44.08725" lon="-1.02428">
        <ele>67</ele>
        <time>2017-01-13T12:25:41Z</time>
      </trkpt>
      <trkpt lat="44.08675" lon="-1.02387">
        <ele>65</ele>
        <time>2017-01-13T12:26:21Z</time>
      </trkpt>
      <trkpt lat="44.08677" lon="-1.02286">
        <ele>64</ele>
        <time>2017-01-13T12:27:01Z</time>
      </trkpt>
      <trkpt lat="44.08691" lon="-1.02267">
        <ele>64</ele>
        <time>2017-01-13T12:27:41Z</time>
      </trkpt>
      <trkpt lat="44.0856" lon="-1.02102">
        <ele>76</ele>
        <time>2017-01-13T12:28:21Z</time>
      </trkpt>
      <trkpt lat="44.08441" lon="-1.01997">
        <ele>79</ele>
        <time>2017-01-13T12:29:01Z</time>
      </trkpt>
      <trkpt lat="44.0841" lon="-1.02121">
        <ele>79</ele>
        <time>2017-01-13T12:29:41Z</time>
      </trkpt>
      <trkpt lat="44.08367" lon="-1.0225">
        <ele>78</ele>
        <time>2017-01-13T12:30:21Z</time>
      </trkpt>
      <trkpt lat="44.0835" lon="-1.02377">
        <ele>75</ele>
        <time>2017-01-13T12:31:01Z</time>
      </trkpt>
      <trkpt lat="44.08244" lon="-1.02604">
        <ele>75</ele>
        <time>2017-01-13T12:31:41Z</time>
      </trkpt>
      <trkpt lat="44.08219" lon="-1.02748">
        <ele>76</ele>
        <time>2017-01-13T12:32:21Z</time>
      </trkpt>
      <trkpt lat="44.0817" lon="-1.02851">
        <ele>72</ele>
        <time>2017-01-13T12:33:01Z</time>
      </trkpt>
      <trkpt lat="44.08142" lon="-1.02915">
        <ele>71</ele>
        <time>2017-01-13T12:33:41Z</time>
      </trkpt>
      <trkpt lat="44.07843" lon="-1.03394">
        <ele>69</ele>
        <time>2017-01-13T12:34:21Z</time>
      </trkpt>
      <trkpt lat="44.07803" lon="-1.03432">
        <ele>71</ele>
        <time>2017-01-13T12:35:01Z</time>
      </trkpt>
      <trkpt lat="44.07763" lon="-1.03518">
        <ele>71</ele>
        <time>2017-01-13T12:35:41Z</time>
      </trkpt>
      <trkpt lat="44.07726" lon="-1.03653">
        <ele>70</ele>
        <time>2017-01-13T12:36:21Z</time>
      </trkpt>
      <trkpt lat="44.07687" lon="-1.03707">
        <ele>68</ele>
        <time>2017-01-13T12:37:01Z</time>
      </trkpt>
      <trkpt lat="44.07647" lon="-1.03819">
        <ele>66</ele>
        <time>2017-01-13T12:37:41Z</time>
      </trkpt>
      <trkpt lat="44.07618" lon="-1.03958">
        <ele>63</ele>
        <time>2017-01-13T12:38:21Z</time>
      </trkpt>
      <trkpt lat="44.07555" lon="-1.04104">
        <ele>62</ele>
        <time>2017-01-13T12:39:01Z</time>
      </trkpt>
      <trkpt lat="44.07525" lon="-1.04198">
        <ele>62</ele>
        <time>2017-01-13T12:39:41Z</time>
      </trkpt>
      <trkpt lat="44.07471" lon="-1.04267">
        <ele>62</ele>
        <time>2017-01-13T12:40:21Z</time>
      </trkpt>
      <trkpt lat="44.07379" lon="-1.04456">
        <ele>62</ele>
        <time>2017-01-13T12:41:01Z</time>
      </trkpt>
      <trkpt lat="44.07296" lon="-1.04546">
        <ele>61</ele>
        <time>2017-01-13T12:41:41Z</time>
      </trkpt>
      <trkpt lat="44.07242" lon="-1.047">
        <ele>61</ele>
        <time>2017-01-13T12:42:21Z</time>
      </trkpt>
      <trkpt lat="44.07183" lon="-1.04829">
        <ele>62</ele>
        <time>2017-01-13T12:43:01Z</time>
      </trkpt>
      <trkpt lat="44.07126" lon="-1.04848">
        <ele>62</ele>
        <time>2017-01-13T12:43:41Z</time>
      </trkpt>
      <trkpt lat="44.07003" lon="-1.05132">
        <ele>59</ele>
        <time>2017-01-13T12:44:21Z</time>
      </trkpt>
      <trkpt lat="44.06876" lon="-1.05284">
        <ele>55</ele>
        <time>2017-01-13T12:45:01Z</time>
      </trkpt>
      <trkpt lat="44.06676" lon="-1.05357">
        <ele>56</ele>
        <time>2017-01-13T12:45:41Z</time>
      </trkpt>
      <trkpt lat="44.06616" lon="-1.05355">
        <ele>60</ele>
        <time>2017-01-13T12:46:21Z</time>
      </trkpt>
      <trkpt lat="44.06519" lon="-1.05295">
        <ele>61</ele>
        <time>2017-01-13T12:47:01Z</time>
      </trkpt>
      <trkpt lat="44.06426" lon="-1.05657">
        <ele>63</ele>
        <time>2017-01-13T12:47:41Z</time>
      </trkpt>
      <trkpt lat="44.06286" lon="-1.05943">
        <ele>53</ele>
        <time>2017-01-13T12:48:21Z</time>
      </trkpt>
      <trkpt lat="44.06277" lon="-1.06033">
        <ele>52</ele>
        <time>2017-01-13T12:49:01Z</time>
      </trkpt>
      <trkpt lat="44.06286" lon="-1.0619">
        <ele>50</ele>
        <time>2017-01-13T12:49:41Z</time>
      </trkpt>
      <trkpt lat="44.06078" lon="-1.06451">
        <ele>41</ele>
        <time>2017-01-13T12:50:21Z</time>
      </trkpt>
      <trkpt lat="44.06078" lon="-1.06451">
        <ele>41</ele>
        <time>2017-01-13T12:50:21Z</time>
      </trkpt>
      <trkpt lat="44.06093" lon="-1.06554">
        <ele>40</ele>
        <time>2017-01-13T12:51:01Z</time>
      </trkpt>
      <trkpt lat="44.06102" lon="-1.06782">
        <ele>39</ele>
        <time>2017-01-13T12:51:41Z</time>
      </trkpt>
      <trkpt lat="44.06113" lon="-1.06876">
        <ele>40</ele>
        <time>2017-01-13T12:52:21Z</time>
      </trkpt>
      <trkpt lat="44.06146" lon="-1.06956">
        <ele>42</ele>
        <time>2019-01-06T14:27:13Z</time>
      </trkpt>
    </trkseg>
  </trk>
</gpx>